Time;durP1;ratioP1;P1;durP2;ratioP2;P2;SDS_P1;SDS_P2;PMS_P1;PMS_P2;Temp;Humidity;BMP_temperature;BMP_pressure;BME280_temperature;BME280_humidity;BME280_pressure;Samples;Min_cycle;Max_cycle;Signal;HPM_P1;HPM_P2
2021/08/10 00:00:38;;;;;;;11.03;9.30;;;;;;;16.91;73.08;101507.41;5973718;29;20232;-60
2021/08/10 00:03:59;;;;;;;13.17;9.63;;;;;;;16.88;72.98;101496.94;5977434;29;20568;-60
2021/08/10 00:07:22;;;;;;;13.77;9.33;;;;;;;16.91;72.79;101491.63;5982629;29;20240;-61
2021/08/10 00:10:44;;;;;;;9.93;8.83;;;;;;;16.94;72.85;101491.53;5976590;29;20229;-61
2021/08/10 00:14:05;;;;;;;12.37;8.80;;;;;;;17.03;72.19;101488.66;5981453;29;20240;-60
2021/08/10 00:17:27;;;;;;;11.40;9.87;;;;;;;16.75;72.95;101480.56;5981205;29;20236;-60
2021/08/10 00:20:50;;;;;;;12.57;10.63;;;;;;;16.77;73.42;101488.41;5976348;29;20758;-57
2021/08/10 00:24:11;;;;;;;11.50;9.33;;;;;;;16.68;73.35;101487.72;5974083;29;20240;-60
2021/08/10 00:27:32;;;;;;;11.57;9.50;;;;;;;16.85;73.13;101484.72;5977914;29;20250;-59
2021/08/10 00:30:53;;;;;;;11.27;10.00;;;;;;;16.78;72.86;101480.47;5968665;29;20240;-59
2021/08/10 00:34:15;;;;;;;11.07;9.33;;;;;;;16.86;72.95;101480.34;5988677;29;20315;-60
2021/08/10 00:37:37;;;;;;;12.97;9.53;;;;;;;16.64;73.29;101483.44;5980584;29;20240;-59
2021/08/10 00:40:59;;;;;;;11.90;9.43;;;;;;;16.42;73.46;101482.22;5975790;29;20231;-59
2021/08/10 00:44:20;;;;;;;10.33;8.97;;;;;;;16.38;74.67;101480.56;5980535;29;20260;-60
2021/08/10 00:47:42;;;;;;;12.47;10.20;;;;;;;16.14;74.95;101483.69;5978783;29;20638;-62
2021/08/10 00:51:07;;;;;;;12.17;9.40;;;;;;;15.92;76.02;101487.69;5987910;29;20243;-59
2021/08/10 00:54:30;;;;;;;9.40;7.70;;;;;;;16.54;74.64;101482.81;5987665;29;20236;-60
2021/08/10 00:57:51;;;;;;;12.00;9.73;;;;;;;16.22;75.31;101478.25;5989607;29;20607;-60
2021/08/10 01:01:13;;;;;;;10.67;9.37;;;;;;;16.35;74.94;101489.38;5970828;29;20235;-60
2021/08/10 01:04:37;;;;;;;9.70;8.63;;;;;;;16.68;73.48;101481.63;5990818;29;20244;-59
2021/08/10 01:08:07;;;;;;;14.07;10.33;;;;;;;16.52;74.47;101489.00;5973631;29;20243;-60
2021/08/10 01:11:33;;;;;;;13.20;9.53;;;;;;;16.68;73.80;101485.09;5973757;29;20871;-59
2021/08/10 01:15:02;;;;;;;11.00;9.47;;;;;;;16.69;73.88;101486.84;5976129;29;20232;-60
2021/08/10 01:18:28;;;;;;;11.07;8.67;;;;;;;16.70;73.74;101478.03;5972787;29;20235;-59
2021/08/10 01:21:55;;;;;;;8.80;7.60;;;;;;;16.63;73.57;101476.44;5992537;29;20243;-60
2021/08/10 01:25:32;;;;;;;10.60;8.70;;;;;;;16.59;74.22;101474.78;5983555;29;20239;-60
2021/08/10 01:29:05;;;;;;;9.17;7.57;;;;;;;16.42;74.59;101474.31;5986392;29;20322;-59
2021/08/10 01:32:28;;;;;;;9.53;7.37;;;;;;;16.54;73.83;101467.03;5970356;29;20231;-60
2021/08/10 01:35:53;;;;;;;9.93;7.40;;;;;;;16.56;73.89;101474.03;5973944;29;20231;-59
2021/08/10 01:39:15;;;;;;;12.33;8.77;;;;;;;16.52;73.93;101475.88;5965244;29;20240;-60
2021/08/10 01:42:44;;;;;;;10.30;9.03;;;;;;;16.58;73.53;101466.97;5977920;29;20594;-60
2021/08/10 01:46:07;;;;;;;9.17;8.10;;;;;;;16.41;73.85;101469.97;5985762;29;20267;-60
2021/08/10 01:49:32;;;;;;;8.80;7.73;;;;;;;16.31;74.06;101470.19;5978300;29;20247;-61
2021/08/10 01:52:53;;;;;;;10.43;7.93;;;;;;;16.08;74.67;101467.22;5975621;29;20236;-59
2021/08/10 01:56:17;;;;;;;11.50;8.83;;;;;;;15.98;75.23;101471.78;5987981;29;20621;-60
2021/08/10 01:59:41;;;;;;;8.67;7.40;;;;;;;15.97;75.54;101469.19;5977869;29;20255;-60
2021/08/10 02:03:07;;;;;;;9.60;7.70;;;;;;;16.13;74.68;101468.84;5982411;29;20323;-59
2021/08/10 02:06:41;;;;;;;10.63;7.70;;;;;;;16.17;74.81;101469.63;5992363;29;21030;-59
2021/08/10 02:10:05;;;;;;;9.63;8.63;;;;;;;16.13;74.27;101471.47;5982696;29;20279;-60
2021/08/10 02:13:26;;;;;;;8.57;7.00;;;;;;;16.11;74.79;101472.38;5985985;29;20279;-59
2021/08/10 02:16:49;;;;;;;9.07;6.83;;;;;;;16.22;74.37;101464.28;5981771;29;20607;-58
2021/08/10 02:20:14;;;;;;;8.23;6.10;;;;;;;16.25;74.42;101472.97;5978328;29;20667;-60
2021/08/10 02:23:39;;;;;;;7.70;5.67;;;;;;;15.92;74.36;101478.03;5991621;29;20247;-60
2021/08/10 02:27:04;;;;;;;8.43;6.40;;;;;;;16.10;74.71;101468.03;5984444;29;20243;-60
2021/08/10 02:30:30;;;;;;;5.80;5.20;;;;;;;15.97;74.73;101469.19;5973553;29;20247;-60
2021/08/10 02:33:53;;;;;;;6.93;5.43;;;;;;;16.18;73.95;101476.59;6003033;29;20514;-59
2021/08/10 02:37:17;;;;;;;7.27;5.70;;;;;;;16.12;74.14;101474.13;5985053;29;20247;-59
2021/08/10 02:40:46;;;;;;;8.37;5.17;;;;;;;16.03;74.56;101471.69;5970582;29;20232;-60
2021/08/10 02:44:10;;;;;;;8.60;5.17;;;;;;;16.17;74.31;101466.13;5993515;29;20255;-59
2021/08/10 02:47:32;;;;;;;4.77;4.30;;;;;;;16.08;74.45;101467.22;5993837;29;20323;-60
2021/08/10 02:50:53;;;;;;;5.73;4.73;;;;;;;15.88;74.23;101465.88;5984907;29;20243;-60
2021/08/10 02:54:16;;;;;;;5.47;4.77;;;;;;;16.25;73.60;101453.69;5976585;29;20611;-60
2021/08/10 02:57:48;;;;;;;6.43;5.03;;;;;;;16.10;74.13;101468.03;5977780;29;20244;-60
2021/08/10 03:01:13;;;;;;;6.23;4.20;;;;;;;15.87;74.60;101458.00;5979897;29;20662;-60
2021/08/10 03:04:41;;;;;;;4.17;3.77;;;;;;;16.00;74.28;101458.63;5993032;29;20235;-59
2021/08/10 03:08:06;;;;;;;5.77;4.37;;;;;;;15.88;75.10;101460.63;5972826;29;20646;-60
2021/08/10 03:11:29;;;;;;;5.10;4.17;;;;;;;16.14;74.21;101464.44;5991747;29;20248;-59
2021/08/10 03:14:54;;;;;;;5.53;4.70;;;;;;;15.84;75.30;101455.44;5980507;29;20240;-59
2021/08/10 03:18:16;;;;;;;6.30;4.67;;;;;;;15.75;75.58;101461.75;5981792;29;20252;-60
2021/08/10 03:21:42;;;;;;;5.27;4.77;;;;;;;15.42;75.97;101458.88;5984846;29;20228;-59
2021/08/10 03:25:06;;;;;;;5.20;3.87;;;;;;;15.85;75.27;101450.16;5978117;29;20232;-60
2021/08/10 03:28:29;;;;;;;8.00;5.27;;;;;;;15.08;77.83;101451.63;5992742;29;20240;-59
2021/08/10 03:31:52;;;;;;;5.00;4.07;;;;;;;15.12;78.07;101448.06;5993162;29;20244;-58
2021/08/10 03:35:13;;;;;;;6.70;4.60;;;;;;;15.04;78.31;101452.53;5994524;29;20240;-58
2021/08/10 03:38:37;;;;;;;6.70;5.90;;;;;;;15.00;79.07;101461.38;5965664;29;20593;-59
2021/08/10 03:42:00;;;;;;;6.80;4.50;;;;;;;15.07;78.54;101457.75;5975308;29;20269;-59
2021/08/10 03:45:25;;;;;;;7.50;5.97;;;;;;;14.79;79.58;101453.88;5974363;29;20244;-60
2021/08/10 03:48:50;;;;;;;6.57;5.77;;;;;;;15.31;78.09;101445.94;5969159;29;20240;-60
2021/08/10 03:52:13;;;;;;;5.03;4.53;;;;;;;15.45;76.72;101452.69;5983798;29;20263;-59
2021/08/10 03:55:36;;;;;;;7.37;4.63;;;;;;;15.19;77.90;101443.56;5993736;29;20541;-59
2021/08/10 03:59:00;;;;;;;5.37;4.30;;;;;;;15.16;78.14;101449.72;5991399;29;20501;-59
2021/08/10 04:02:26;;;;;;;6.87;5.17;;;;;;;15.01;78.51;101450.00;5989156;29;20606;-59
2021/08/10 04:05:50;;;;;;;6.57;4.93;;;;;;;15.16;77.73;101452.34;5973888;29;20235;-60
2021/08/10 04:09:12;;;;;;;4.87;3.80;;;;;;;15.23;77.36;101449.59;5974536;29;20623;-59
2021/08/10 04:12:33;;;;;;;6.87;4.47;;;;;;;15.63;75.89;101465.47;5973385;29;20240;-60
2021/08/10 04:15:54;;;;;;;6.07;4.67;;;;;;;15.32;76.77;101458.19;5981412;29;20239;-58
2021/08/10 04:19:16;;;;;;;4.57;4.17;;;;;;;15.91;75.11;101459.69;5991344;29;20236;-59
2021/08/10 04:22:42;;;;;;;6.90;4.73;;;;;;;15.78;75.35;101464.34;5989905;29;20319;-59
2021/08/10 04:26:08;;;;;;;6.43;5.70;;;;;;;16.03;74.35;101474.31;5977871;29;20243;-59
2021/08/10 04:29:29;;;;;;;6.37;4.03;;;;;;;15.58;75.79;101462.06;5975135;29;20239;-56
2021/08/10 04:32:51;;;;;;;6.67;6.07;;;;;;;15.84;74.95;101463.31;5973041;29;20240;-58
2021/08/10 04:36:13;;;;;;;6.67;5.40;;;;;;;15.83;75.28;101456.34;5993075;29;20248;-59
2021/08/10 04:39:37;;;;;;;7.50;4.27;;;;;;;15.51;76.03;101458.69;5987595;29;20319;-60
2021/08/10 04:43:02;;;;;;;6.50;5.00;;;;;;;15.91;74.73;101463.16;5979973;29;20228;-60
2021/08/10 04:46:25;;;;;;;5.77;4.63;;;;;;;15.71;75.74;101466.16;5975555;29;20267;-59
2021/08/10 04:49:46;;;;;;;5.57;4.97;;;;;;;15.50;76.76;101464.81;5983223;29;20232;-60
2021/08/10 04:53:07;;;;;;;6.27;5.67;;;;;;;15.95;75.17;101471.84;5976482;29;20595;-59
2021/08/10 04:56:29;;;;;;;6.73;5.30;;;;;;;15.42;77.56;101471.13;5981692;29;20251;-59
2021/08/10 04:59:51;;;;;;;4.97;4.47;;;;;;;15.84;75.79;101469.47;5988355;29;20224;-59
2021/08/10 05:03:12;;;;;;;4.60;4.20;;;;;;;15.93;75.03;101464.00;5984941;29;20240;-59
2021/08/10 05:06:36;;;;;;;4.97;4.10;;;;;;;15.72;75.51;101461.78;5980395;29;20240;-61
2021/08/10 05:09:57;;;;;;;5.07;4.27;;;;;;;15.38;77.09;101467.69;5966672;29;20232;-58
2021/08/10 05:13:19;;;;;;;6.03;5.40;;;;;;;15.15;78.56;101471.59;5979400;29;20620;-60
2021/08/10 05:16:40;;;;;;;6.20;5.20;;;;;;;15.25;78.38;101466.19;5978709;29;20283;-60
2021/08/10 05:20:01;;;;;;;6.23;4.80;;;;;;;15.24;78.68;101467.09;5974243;29;20236;-60
2021/08/10 05:23:24;;;;;;;6.30;4.73;;;;;;;15.21;79.17;101467.13;5992673;29;20235;-59
2021/08/10 05:26:45;;;;;;;8.00;4.83;;;;;;;15.49;78.03;101464.84;5980375;29;20236;-59
2021/08/10 05:30:10;;;;;;;5.40;4.90;;;;;;;15.83;76.83;101470.34;5992235;29;20263;-61
2021/08/10 05:33:31;;;;;;;4.90;4.20;;;;;;;15.87;75.53;101473.78;5965093;29;20343;-60
2021/08/10 05:36:52;;;;;;;6.37;5.20;;;;;;;15.85;75.60;101475.56;5974742;29;20241;-59
2021/08/10 05:40:14;;;;;;;6.40;5.80;;;;;;;15.79;76.16;101476.56;5980586;29;20243;-60
2021/08/10 05:43:35;;;;;;;5.20;4.70;;;;;;;16.00;74.83;101471.75;5987926;29;20239;-59
2021/08/10 05:47:04;;;;;;;6.13;5.13;;;;;;;16.05;74.76;101467.25;5995803;29;20247;-59
2021/08/10 05:50:25;;;;;;;8.90;5.47;;;;;;;16.13;75.13;101475.88;5992160;29;20572;-59
2021/08/10 05:53:47;;;;;;;6.70;5.13;;;;;;;15.90;75.41;101469.31;5978851;29;20319;-60
2021/08/10 05:57:11;;;;;;;6.93;5.40;;;;;;;16.31;74.49;101464.94;5990069;29;20244;-60
2021/08/10 06:00:32;;;;;;;5.57;4.57;;;;;;;16.04;75.14;101466.41;5989027;29;20331;-59
2021/08/10 06:04:04;;;;;;;7.47;4.73;;;;;;;16.42;73.83;101456.81;5998684;29;20244;-60
2021/08/10 06:07:25;;;;;;;6.07;5.47;;;;;;;16.16;74.76;101449.50;5984249;29;20233;-60
2021/08/10 06:10:46;;;;;;;6.60;4.47;;;;;;;15.91;75.23;101439.53;5985379;29;20634;-59
2021/08/10 06:14:07;;;;;;;7.13;5.13;;;;;;;16.02;74.67;101447.19;5970254;29;20236;-59
2021/08/10 06:17:29;;;;;;;5.37;4.77;;;;;;;16.21;74.63;101444.16;5970455;29;20248;-61
2021/08/10 06:20:52;;;;;;;6.83;5.10;;;;;;;15.99;75.54;101441.97;5974818;29;20244;-59
2021/08/10 06:24:16;;;;;;;6.73;4.83;;;;;;;16.45;74.32;101445.34;5974172;29;20228;-60
2021/08/10 06:27:39;;;;;;;5.57;4.83;;;;;;;16.20;74.83;101439.78;5991648;29;20239;-60
2021/08/10 06:31:00;;;;;;;7.97;5.20;;;;;;;16.10;75.25;101428.63;5985726;29;20243;-58
2021/08/10 06:34:21;;;;;;;8.10;4.83;;;;;;;15.88;76.11;101428.25;5978091;29;20283;-59
2021/08/10 06:37:43;;;;;;;6.23;5.40;;;;;;;16.46;73.97;101429.53;5974011;29;20240;-59
2021/08/10 06:41:04;;;;;;;7.50;4.87;;;;;;;16.12;74.97;101438.19;5969938;29;20228;-59
2021/08/10 06:44:25;;;;;;;7.33;4.90;;;;;;;16.40;74.67;101436.69;5965800;29;20591;-60
2021/08/10 06:47:51;;;;;;;5.73;4.73;;;;;;;16.13;75.72;101439.09;5985975;29;20528;-59
2021/08/10 06:51:20;;;;;;;6.13;4.50;;;;;;;16.08;75.50;101441.78;5980637;29;20331;-60
2021/08/10 06:54:42;;;;;;;6.47;4.73;;;;;;;16.47;74.92;101441.78;5977145;29;20334;-59
2021/08/10 06:58:04;;;;;;;7.00;5.70;;;;;;;16.37;75.36;101449.94;5979746;29;20580;-59
2021/08/10 07:01:26;;;;;;;8.23;5.33;;;;;;;16.02;76.08;101449.81;5979293;29;21212;-59
2021/08/10 07:04:47;;;;;;;8.77;5.67;;;;;;;16.16;75.24;101452.13;5981624;29;20619;-58
2021/08/10 07:08:08;;;;;;;6.10;5.60;;;;;;;16.69;74.14;101449.13;5945053;29;20658;-61
2021/08/10 07:11:35;;;;;;;9.03;5.60;;;;;;;16.55;74.65;101449.47;5983805;29;20240;-60
2021/08/10 07:14:57;;;;;;;7.30;5.50;;;;;;;16.54;74.88;101455.66;5959110;29;20257;-60
2021/08/10 07:18:18;;;;;;;7.93;5.27;;;;;;;17.00;73.06;101444.03;5985668;29;20912;-60
2021/08/10 07:21:39;;;;;;;7.97;6.03;;;;;;;16.77;74.44;101454.22;6005035;29;20251;-59
2021/08/10 07:25:09;;;;;;;6.07;4.77;;;;;;;16.97;72.86;101459.88;5971518;29;20256;-60
2021/08/10 07:28:32;;;;;;;7.17;5.77;;;;;;;16.79;73.90;101463.81;5970352;29;20338;-58
2021/08/10 07:31:56;;;;;;;7.47;6.10;;;;;;;16.81;73.36;101469.00;5958270;29;20247;-58
2021/08/10 07:35:18;;;;;;;7.73;5.90;;;;;;;16.61;74.56;101474.75;5976086;29;20240;-60
2021/08/10 07:38:39;;;;;;;9.43;5.43;;;;;;;16.59;74.95;101471.31;5969010;29;20346;-60
2021/08/10 07:42:02;;;;;;;9.50;6.63;;;;;;;16.74;74.84;101469.16;5988653;29;20239;-60
2021/08/10 07:45:28;;;;;;;7.20;5.80;;;;;;;17.46;72.30;101469.09;5974567;29;20248;-60
2021/08/10 07:48:50;;;;;;;7.60;6.90;;;;;;;17.65;71.34;101469.47;5963592;29;20562;-60
2021/08/10 07:52:14;;;;;;;7.10;5.47;;;;;;;17.57;71.14;101470.59;5988027;29;20252;-59
2021/08/10 07:55:36;;;;;;;9.97;5.47;;;;;;;17.26;72.36;101460.91;5974537;29;20236;-59
2021/08/10 07:58:57;;;;;;;9.30;6.10;;;;;;;17.66;71.40;101470.31;5966539;29;20255;-59
2021/08/10 08:02:20;;;;;;;6.10;5.50;;;;;;;17.48;72.05;101469.91;5979969;29;20529;-59
2021/08/10 08:05:41;;;;;;;7.40;5.30;;;;;;;17.60;71.95;101465.22;5972366;29;23066;-59
2021/08/10 08:09:02;;;;;;;6.40;5.33;;;;;;;17.69;71.62;101457.94;5978683;29;20248;-60
2021/08/10 08:12:23;;;;;;;6.87;5.30;;;;;;;17.77;71.31;101451.59;5969117;29;20244;-60
2021/08/10 08:15:44;;;;;;;9.33;6.73;;;;;;;17.41;72.18;101460.50;5976432;29;20523;-60
2021/08/10 08:19:07;;;;;;;5.87;5.27;;;;;;;17.06;73.36;101451.75;5990657;29;20339;-60
2021/08/10 08:22:28;;;;;;;8.97;6.10;;;;;;;17.09;73.71;101458.69;5976221;29;20536;-60
2021/08/10 08:25:49;;;;;;;6.80;5.40;;;;;;;17.07;73.44;101450.84;5967928;29;20515;-59
2021/08/10 08:29:10;;;;;;;6.93;5.72;;;;;;;17.92;70.73;101450.31;5982755;29;20247;-60
2021/08/10 08:32:32;;;;;;;7.53;6.70;;;;;;;18.16;69.88;101457.47;5974626;29;20244;-60
2021/08/10 08:35:54;;;;;;;8.93;5.97;;;;;;;17.82;70.75;101455.81;5964697;29;20248;-60
2021/08/10 08:39:16;;;;;;;6.77;5.43;;;;;;;17.48;71.38;101471.69;5978084;29;20248;-61
2021/08/10 08:42:40;;;;;;;7.73;5.77;;;;;;;17.49;71.64;101455.00;5968613;29;20342;-60
2021/08/10 08:46:01;;;;;;;7.10;4.43;;;;;;;18.21;70.43;101447.66;5973307;29;20236;-59
2021/08/10 08:49:30;;;;;;;8.20;5.73;;;;;;;18.57;69.06;101459.72;5971053;29;20251;-59
2021/08/10 08:52:55;;;;;;;6.68;5.18;;;;;;;18.87;68.11;101457.88;5975392;29;20247;-60
2021/08/10 08:56:18;;;;;;;10.02;6.18;;;;;;;18.37;69.97;101465.63;5985643;29;20326;-60
2021/08/10 08:59:41;;;;;;;5.80;4.80;;;;;;;18.35;69.45;101459.53;5981354;29;20241;-59
2021/08/10 09:03:04;;;;;;;7.57;5.72;;;;;;;17.95;70.69;101450.22;5959696;29;20244;-60
2021/08/10 09:06:25;;;;;;;5.70;5.07;;;;;;;18.71;68.31;101441.69;5973020;29;20244;-59
2021/08/10 09:09:48;;;;;;;6.90;6.20;;;;;;;18.82;68.03;101438.69;5961994;29;20264;-60
2021/08/10 09:13:12;;;;;;;8.00;5.80;;;;;;;18.92;67.71;101429.59;5969745;29;20647;-58
2021/08/10 09:16:35;;;;;;;6.47;5.05;;;;;;;18.78;67.19;101434.41;5964196;29;20236;-60
2021/08/10 09:20:02;;;;;;;7.47;5.57;;;;;;;19.22;65.97;101421.50;5970121;29;20248;-60
2021/08/10 09:23:36;;;;;;;5.60;5.10;;;;;;;19.61;65.01;101423.59;5966374;29;20251;-59
2021/08/10 09:26:59;;;;;;;8.02;5.25;;;;;;;19.49;65.28;101427.56;5962825;29;20322;-59
2021/08/10 09:30:26;;;;;;;7.18;4.82;;;;;;;20.41;62.76;101407.28;5984440;29;20256;-60
2021/08/10 09:33:48;;;;;;;10.77;5.35;;;;;;;20.38;62.11;101404.78;5985402;29;20241;-60
2021/08/10 09:37:15;;;;;;;7.30;4.75;;;;;;;19.45;64.77;101405.69;5965257;29;20342;-59
2021/08/10 09:40:39;;;;;;;10.13;5.60;;;;;;;19.12;66.03;101399.84;5982015;29;20291;-60
2021/08/10 09:44:14;;;;;;;8.75;4.63;;;;;;;20.12;63.60;101400.53;5943339;29;20638;-60
2021/08/10 09:47:39;;;;;;;7.60;4.57;;;;;;;20.33;62.03;101397.03;5983184;29;20645;-59
2021/08/10 09:51:09;;;;;;;7.00;4.43;;;;;;;20.10;62.76;101390.00;5988864;29;20244;-60
2021/08/10 09:54:30;;;;;;;9.32;4.15;;;;;;;20.58;59.64;101399.53;5983538;29;20247;-59
2021/08/10 09:58:09;;;;;;;7.03;3.35;;;;;;;20.29;59.40;101394.59;5981022;29;20239;-59
2021/08/10 10:01:36;;;;;;;3.97;2.97;;;;;;;20.64;58.06;101385.22;5972352;29;20244;-60
2021/08/10 10:04:58;;;;;;;7.18;4.38;;;;;;;20.77;57.77;101393.50;5989347;29;20236;-59
2021/08/10 10:08:22;;;;;;;4.47;3.25;;;;;;;20.61;57.50;101391.50;5986948;29;20240;-59
2021/08/10 10:11:46;;;;;;;4.82;4.28;;;;;;;20.89;55.87;101385.03;5972398;29;20263;-60
2021/08/10 10:15:08;;;;;;;4.70;4.03;;;;;;;19.73;58.82;101401.16;5956282;29;20584;-58
2021/08/10 10:18:31;;;;;;;5.70;3.97;;;;;;;19.45;59.48;101397.75;5979983;29;20243;-59
2021/08/10 10:21:54;;;;;;;5.47;4.72;;;;;;;19.63;58.83;101390.06;5970942;29;20240;-58
2021/08/10 10:25:15;;;;;;;5.40;4.05;;;;;;;19.94;57.77;101388.91;5981326;29;20239;-59
2021/08/10 10:28:36;;;;;;;6.53;4.55;;;;;;;20.39;56.58;101380.91;5981937;29;20457;-59
2021/08/10 10:31:58;;;;;;;4.70;3.92;;;;;;;20.62;55.27;101376.47;5981498;29;20610;-59
2021/08/10 10:35:20;;;;;;;4.70;3.88;;;;;;;21.11;53.92;101374.38;5984102;29;20248;-59
2021/08/10 10:38:43;;;;;;;5.40;4.47;;;;;;;20.62;54.78;101366.75;5972945;29;20623;-60
2021/08/10 10:42:08;;;;;;;5.97;4.32;;;;;;;21.58;51.83;101365.22;5983431;29;20633;-60
2021/08/10 10:45:37;;;;;;;4.10;3.70;;;;;;;21.61;51.27;101365.06;5980036;29;20307;-61
2021/08/10 10:48:58;;;;;;;5.80;3.65;;;;;;;21.87;51.18;101362.97;5963796;29;20615;-58
2021/08/10 10:52:20;;;;;;;5.30;4.80;;;;;;;21.30;53.08;101362.94;5980437;29;20228;-59
2021/08/10 10:55:43;;;;;;;4.50;3.78;;;;;;;20.84;54.67;101371.16;5958326;29;20245;-59
2021/08/10 10:59:28;;;;;;;6.30;4.28;;;;;;;21.03;53.29;101366.78;5971786;29;20623;-59
2021/08/10 11:03:10;;;;;;;5.15;4.10;;;;;;;21.10;52.52;101358.53;5984722;29;20244;-60
2021/08/10 11:06:32;;;;;;;7.20;6.05;;;;;;;20.51;52.66;101362.81;5971133;29;20308;-59
2021/08/10 11:09:57;;;;;;;6.13;5.15;;;;;;;20.80;53.38;101374.81;5981182;29;20635;-58
2021/08/10 11:13:38;;;;;;;4.97;4.45;;;;;;;20.51;54.20;101376.03;5972523;29;20347;-59
2021/08/10 11:17:11;;;;;;;4.18;3.75;;;;;;;20.98;52.72;101374.03;5971888;29;20237;-60
2021/08/10 11:20:33;;;;;;;4.47;3.67;;;;;;;21.00;51.79;101360.75;5960011;29;20232;-60
2021/08/10 11:23:55;;;;;;;4.55;4.03;;;;;;;20.58;52.84;101383.66;5968100;29;20277;-59
2021/08/10 11:27:39;;;;;;;7.82;4.95;;;;;;;20.45;55.09;101379.78;5981445;29;20239;-60
2021/08/10 11:31:01;;;;;;;7.13;5.22;;;;;;;20.27;55.73;101368.19;5963579;29;20240;-61
2021/08/10 11:34:38;;;;;;;5.65;5.03;;;;;;;19.73;57.61;101386.16;5979439;29;20236;-60
2021/08/10 11:38:14;;;;;;;4.93;4.35;;;;;;;20.13;56.62;101379.34;5977295;29;20315;-58
2021/08/10 11:41:36;;;;;;;7.07;5.03;;;;;;;18.96;61.87;101390.72;5979339;29;20239;-58
2021/08/10 11:45:01;;;;;;;6.43;4.38;;;;;;;19.33;61.90;101387.66;5961899;29;20236;-58
2021/08/10 11:48:22;;;;;;;7.82;6.95;;;;;;;20.44;59.70;101378.09;5969457;29;20235;-60
2021/08/10 11:51:45;;;;;;;8.20;5.18;;;;;;;20.02;60.45;101377.09;5983401;29;20244;-59
2021/08/10 11:55:06;;;;;;;7.60;5.75;;;;;;;20.53;60.03;101380.34;5982745;29;20232;-59
2021/08/10 11:58:43;;;;;;;5.57;5.05;;;;;;;20.68;59.88;101383.31;5980996;29;20252;-59
2021/08/10 12:02:06;;;;;;;5.03;4.55;;;;;;;21.41;58.02;101388.00;5979139;29;20240;-60
2021/08/10 12:05:27;;;;;;;5.70;4.80;;;;;;;21.23;56.28;101378.25;5968098;29;20248;-60
2021/08/10 12:08:48;;;;;;;7.65;5.40;;;;;;;20.93;57.10;101381.31;5982975;29;20231;-57
2021/08/10 12:12:10;;;;;;;5.00;4.57;;;;;;;20.01;60.65;101379.84;5981178;29;20724;-59
2021/08/10 12:15:50;;;;;;;5.97;4.78;;;;;;;20.24;61.31;101377.13;5963356;29;20235;-60
2021/08/10 12:19:12;;;;;;;5.47;4.97;;;;;;;20.19;62.59;101387.00;5966420;29;20236;-61
2021/08/10 12:22:34;;;;;;;4.50;4.10;;;;;;;19.80;61.22;101392.94;5970885;29;20254;-59
2021/08/10 12:25:55;;;;;;;3.55;3.25;;;;;;;19.24;62.30;101380.91;5981194;29;20240;-59
2021/08/10 12:29:16;;;;;;;3.70;2.90;;;;;;;19.05;60.39;101372.78;5979552;29;20244;-60
2021/08/10 12:32:37;;;;;;;3.00;2.58;;;;;;;18.81;61.94;101394.78;5971420;29;20573;-60
2021/08/10 12:36:07;;;;;;;3.38;2.60;;;;;;;18.36;62.73;101392.69;5978205;29;20327;-58
2021/08/10 12:39:28;;;;;;;4.20;3.20;;;;;;;19.00;62.40;101380.03;5974036;29;20237;-60
2021/08/10 12:42:50;;;;;;;4.60;3.10;;;;;;;20.83;57.33;101378.22;5980166;29;20244;-60
2021/08/10 12:46:26;;;;;;;3.75;2.83;;;;;;;21.66;55.33;101384.28;5980740;29;20240;-59
2021/08/10 12:49:47;;;;;;;3.78;3.08;;;;;;;21.60;57.03;101369.50;5976244;29;20263;-59
2021/08/10 12:53:25;;;;;;;3.20;2.90;;;;;;;25.42;47.17;101366.63;5975413;29;20501;-58
2021/08/10 12:56:46;;;;;;;3.53;2.60;;;;;;;30.36;36.14;101360.88;5977773;29;20236;-59
2021/08/10 13:00:15;;;;;;;4.93;2.85;;;;;;;30.90;34.85;101358.13;5976859;29;20592;-60
2021/08/10 13:03:36;;;;;;;5.30;2.53;;;;;;;31.13;33.64;101354.25;5973012;29;20235;-59
2021/08/10 13:07:11;;;;;;;2.70;2.05;;;;;;;31.46;33.60;101357.69;5969443;29;20243;-60
2021/08/10 13:10:35;;;;;;;4.00;2.60;;;;;;;32.11;31.00;101351.88;5973307;29;20239;-60
2021/08/10 13:14:05;;;;;;;2.20;2.00;;;;;;;33.32;30.04;101350.34;5971706;29;20704;-59
2021/08/10 13:17:30;;;;;;;3.33;2.30;;;;;;;32.76;30.14;101339.47;5976292;29;20868;-60
2021/08/10 13:20:55;;;;;;;3.08;2.55;;;;;;;31.46;32.05;101344.22;5971832;29;20235;-60
2021/08/10 13:24:18;;;;;;;2.83;2.53;;;;;;;33.09;30.32;101339.88;5973482;29;20318;-60
2021/08/10 13:27:43;;;;;;;10.10;3.38;;;;;;;32.12;30.54;101334.69;5974807;29;20240;-60
2021/08/10 13:31:12;;;;;;;2.40;2.20;;;;;;;31.65;31.50;101340.72;5977150;29;20292;-61
2021/08/10 13:34:42;;;;;;;2.90;2.58;;;;;;;33.23;29.05;101327.81;5977026;29;20235;-60
2021/08/10 13:38:04;;;;;;;2.60;2.30;;;;;;;32.88;29.77;101337.44;5970611;29;20235;-60
2021/08/10 13:41:28;;;;;;;4.00;2.80;;;;;;;31.92;29.73;101339.22;5977161;29;20524;-60
2021/08/10 13:44:50;;;;;;;5.20;3.13;;;;;;;25.85;40.08;101343.38;5978309;29;20243;-61
2021/08/10 13:48:12;;;;;;;3.28;2.97;;;;;;;23.67;45.22;101341.34;5968879;29;20514;-60
2021/08/10 13:51:33;;;;;;;4.63;3.10;;;;;;;26.97;39.65;101331.47;5955271;29;20327;-60
2021/08/10 13:54:55;;;;;;;3.40;3.10;;;;;;;28.73;35.20;101330.19;5964666;29;20240;-59
2021/08/10 13:58:16;;;;;;;4.32;3.22;;;;;;;28.96;34.11;101323.88;5969641;29;20235;-60
2021/08/10 14:01:45;;;;;;;3.53;3.22;;;;;;;26.11;40.44;101330.16;5976261;29;20271;-59
2021/08/10 14:05:08;;;;;;;3.42;3.13;;;;;;;27.58;36.58;101336.97;5956164;29;20275;-59
2021/08/10 14:08:29;;;;;;;3.25;2.70;;;;;;;25.26;40.78;101337.38;5961754;29;20240;-60
2021/08/10 14:11:50;;;;;;;3.35;3.00;;;;;;;24.39;43.38;101363.00;5979629;29;20247;-60
2021/08/10 14:15:11;;;;;;;1.63;1.52;;;;;;;22.77;45.20;101361.16;5968652;29;20572;-60
2021/08/10 14:18:34;;;;;;;2.40;1.70;;;;;;;22.63;46.15;101360.16;5974986;29;20252;-61
2021/08/10 14:21:54;;;;;;;1.83;1.73;;;;;;;21.95;48.72;101360.84;5973568;29;20267;-59
2021/08/10 14:25:15;;;;;;;3.60;2.00;;;;;;;21.66;50.24;101368.38;5972284;29;20255;-60
2021/08/10 14:28:38;;;;;;;2.33;2.10;;;;;;;21.03;53.81;101363.25;5959205;29;20619;-60
2021/08/10 14:32:00;;;;;;;2.42;2.20;;;;;;;20.94;55.38;101375.09;5959950;29;20355;-60
2021/08/10 14:35:22;;;;;;;2.28;2.08;;;;;;;21.27;55.46;101376.31;5983165;29;20340;-59
2021/08/10 14:38:43;;;;;;;2.42;1.90;;;;;;;21.13;55.63;101372.50;5968361;29;20263;-60
2021/08/10 14:42:05;;;;;;;2.63;2.33;;;;;;;21.49;55.23;101376.25;5973052;29;20235;-60
2021/08/10 14:45:26;;;;;;;4.00;2.00;;;;;;;21.62;53.75;101374.75;5963901;29;20244;-61
2021/08/10 14:48:47;;;;;;;6.50;2.83;;;;;;;21.71;54.60;101373.44;5970724;29;20240;-60
2021/08/10 14:52:09;;;;;;;2.70;2.20;;;;;;;21.63;54.65;101381.75;5972242;29;20236;-59
2021/08/10 14:55:32;;;;;;;2.42;2.22;;;;;;;22.62;52.85;101372.56;5962443;29;20248;-60
2021/08/10 14:58:53;;;;;;;3.22;2.17;;;;;;;22.91;50.27;101378.19;5947784;29;20256;-59
2021/08/10 15:02:14;;;;;;;2.38;2.17;;;;;;;22.62;51.48;101375.22;5954500;29;20252;-60
2021/08/10 15:05:35;;;;;;;2.85;2.30;;;;;;;22.41;53.17;101374.50;5967152;29;20256;-58
2021/08/10 15:08:58;;;;;;;3.45;2.72;;;;;;;22.75;52.15;101386.94;5962157;29;20240;-59
2021/08/10 15:12:18;;;;;;;3.15;2.80;;;;;;;22.34;53.07;101384.56;5966866;29;20240;-60
2021/08/10 15:15:41;;;;;;;4.22;3.85;;;;;;;22.27;53.30;101392.91;5965162;29;20367;-59
2021/08/10 15:19:01;;;;;;;6.28;5.10;;;;;;;21.92;54.74;101395.44;5973954;29;20593;-59
2021/08/10 15:22:22;;;;;;;3.22;2.80;;;;;;;21.89;53.73;101399.09;5958031;29;20249;-60
2021/08/10 15:25:45;;;;;;;2.63;2.42;;;;;;;21.73;54.93;101388.38;5974280;29;20338;-58
2021/08/10 15:29:06;;;;;;;4.82;3.80;;;;;;;21.46;56.12;101390.50;5964234;29;20233;-59
2021/08/10 15:32:27;;;;;;;4.80;4.20;;;;;;;21.53;56.43;101389.28;5970993;29;20252;-59
2021/08/10 15:35:49;;;;;;;3.55;3.25;;;;;;;21.17;58.11;101387.34;5968902;29;20239;-59
2021/08/10 15:39:10;;;;;;;3.55;3.22;;;;;;;20.84;60.12;101393.19;5969652;29;20232;-59
2021/08/10 15:42:32;;;;;;;6.22;4.35;;;;;;;20.76;62.43;101405.88;5952881;29;20263;-58
2021/08/10 15:45:53;;;;;;;7.43;4.55;;;;;;;20.50;63.13;101430.75;5976888;29;20749;-58